Westlake, Ohio
Current Conditions -  °F | °C
As of 2:51 PM on Sunday 23 Nov 2014 (Local Time) from KCLE Reporting Station
Broken Clouds Broken Clouds  
Wind Chill: 56°   Ceiling: 4600
Heat Index: 56°   Visibility: 10mi
Dew Point: 41°   Wind: 10mph
Humidity: 57%   Direction: 150°SSE
Pressure: 29.83"   Gusts: NA
Location:  41.46°N, 81.92°W
Report Text: KCLE 231951Z 15009KT 10SM BKN046 BKN060 13/05 A2983 RMK AO2 SLP103 T01330050 $
Loading
Personal Weather Stations






























Interactive Weather Map New forecast layout! Learn more

10-Day Weather Forecast

Advertisements
Track Severe Weather on mobile